createdAt,value
2022-11-03T00:01:53.130Z,18.80
2022-11-03T00:04:21.556Z,16.63
2022-11-03T00:06:51.207Z,20.00
2022-11-03T00:09:20.212Z,16.23
2022-11-03T00:11:48.687Z,16.92
2022-11-03T00:14:15.487Z,15.63
2022-11-03T00:16:43.164Z,17.08
2022-11-03T00:19:11.484Z,17.65
2022-11-03T00:21:38.746Z,17.85
2022-11-03T00:24:05.842Z,15.40
2022-11-03T00:26:34.533Z,15.80
2022-11-03T00:29:06.458Z,13.50
2022-11-03T00:31:35.248Z,14.18
2022-11-03T00:34:03.166Z,14.13
2022-11-03T00:36:34.256Z,14.00
2022-11-03T00:39:01.886Z,13.73
2022-11-03T00:41:28.771Z,15.23
2022-11-03T00:43:57.199Z,16.60
2022-11-03T00:46:25.806Z,14.55
2022-11-03T00:48:52.825Z,15.50
2022-11-03T00:51:24.886Z,17.05
2022-11-03T00:53:52.874Z,15.63
2022-11-03T00:56:22.382Z,16.33
2022-11-03T00:58:50.343Z,16.38
2022-11-03T01:01:23.767Z,15.60
2022-11-03T01:04:11.617Z,17.42
2022-11-03T01:06:50.945Z,15.05
2022-11-03T01:09:34.206Z,15.60
2022-11-03T01:12:04.668Z,16.08
2022-11-03T01:14:46.242Z,15.80
2022-11-03T01:17:22.687Z,14.63
2022-11-03T01:19:50.641Z,13.60
2022-11-03T01:22:18.459Z,16.58
2022-11-03T01:24:45.787Z,15.65
2022-11-03T01:27:15.692Z,15.85
2022-11-03T01:29:43.151Z,15.65
2022-11-03T01:32:10.640Z,16.00
2022-11-03T01:34:37.936Z,16.33
2022-11-03T01:37:05.420Z,15.85
2022-11-03T01:39:32.219Z,16.13
2022-11-03T01:41:59.021Z,13.18
2022-11-03T01:44:29.833Z,13.20
2022-11-03T01:47:22.705Z,18.45
2022-11-03T01:50:02.902Z,14.48
2022-11-03T01:52:39.628Z,15.20
2022-11-03T01:55:14.482Z,16.10
2022-11-03T01:57:54.291Z,16.02
2022-11-03T02:00:21.843Z,14.85
2022-11-03T02:02:49.974Z,15.45
2022-11-03T02:05:20.093Z,15.20
2022-11-03T02:07:56.768Z,14.25
2022-11-03T02:10:24.826Z,14.35
2022-11-03T02:12:52.278Z,16.88
2022-11-03T02:15:24.069Z,16.48
2022-11-03T02:17:54.070Z,14.45
2022-11-03T02:20:24.275Z,14.02
2022-11-03T02:23:26.754Z,15.30
2022-11-03T02:25:57.300Z,15.88
2022-11-03T02:28:30.373Z,12.00
2022-11-03T02:31:10.520Z,14.32
2022-11-03T02:34:13.358Z,17.50
2022-11-03T02:36:51.641Z,14.95
2022-11-03T02:39:38.720Z,15.02
2022-11-03T02:42:08.340Z,14.55
2022-11-03T02:44:37.028Z,14.98
2022-11-03T02:47:08.236Z,13.15
2022-11-03T02:49:46.969Z,16.80
2022-11-03T02:52:46.760Z,16.67
2022-11-03T02:55:29.686Z,18.20
2022-11-03T02:58:07.442Z,15.30
2022-11-03T03:00:45.185Z,15.73
2022-11-03T03:03:22.462Z,16.90
2022-11-03T03:05:52.757Z,16.80
2022-11-03T03:08:23.207Z,16.85
2022-11-03T03:10:51.907Z,18.38
2022-11-03T03:13:22.575Z,19.33
2022-11-03T03:15:55.288Z,17.90
2022-11-03T03:18:36.635Z,15.85
2022-11-03T03:21:12.001Z,15.82
2022-11-03T03:23:49.675Z,15.23
2022-11-03T03:26:31.257Z,16.02
2022-11-03T03:29:03.213Z,15.52
2022-11-03T03:31:36.320Z,14.40
2022-11-03T03:34:16.589Z,15.02
2022-11-03T03:36:52.365Z,13.77
2022-11-03T03:39:21.590Z,11.35
2022-11-03T03:41:48.736Z,13.60
2022-11-03T03:44:17.512Z,16.88
2022-11-03T03:46:56.900Z,14.48
2022-11-03T03:49:23.645Z,15.00
2022-11-03T03:51:51.548Z,16.33
2022-11-03T03:54:18.314Z,17.88
2022-11-03T03:57:15.744Z,14.68
2022-11-03T03:59:45.864Z,15.90
2022-11-03T04:02:13.511Z,15.48
2022-11-03T04:04:40.692Z,13.77
2022-11-03T04:07:26.431Z,13.30
2022-11-03T04:09:53.318Z,17.85
2022-11-03T04:12:38.661Z,15.23
2022-11-03T04:15:24.849Z,15.00
2022-11-03T04:18:14.671Z,15.48
2022-11-03T04:21:00.128Z,11.70
2022-11-03T04:23:26.869Z,15.40
2022-11-03T04:25:55.875Z,13.60
2022-11-03T04:28:22.792Z,16.08
2022-11-03T04:30:53.299Z,19.52
2022-11-03T04:33:22.948Z,15.27
2022-11-03T04:35:50.272Z,15.43
2022-11-03T04:38:20.603Z,15.52
2022-11-03T04:40:55.450Z,15.48
2022-11-03T04:43:34.587Z,15.48
2022-11-03T04:46:02.032Z,16.23
2022-11-03T04:48:29.373Z,18.52
2022-11-03T04:50:59.360Z,14.93
2022-11-03T04:53:30.859Z,14.10
2022-11-03T04:56:00.449Z,15.32
2022-11-03T04:58:36.256Z,15.60
2022-11-03T05:01:04.782Z,15.27
2022-11-03T05:03:36.192Z,15.93
2022-11-03T05:06:15.708Z,15.55
2022-11-03T05:08:45.406Z,14.65
2022-11-03T05:11:24.848Z,13.18
2022-11-03T05:13:52.554Z,13.98
2022-11-03T05:16:20.102Z,14.75
2022-11-03T05:18:50.137Z,14.70
2022-11-03T05:21:20.525Z,15.70
2022-11-03T05:23:52.469Z,15.18
2022-11-03T05:26:39.505Z,15.90
2022-11-03T05:29:12.528Z,14.48
2022-11-03T05:31:41.788Z,16.88
2022-11-03T05:34:30.205Z,16.50
2022-11-03T05:37:26.433Z,16.77
2022-11-03T05:39:58.025Z,16.53
2022-11-03T05:42:31.619Z,16.00
2022-11-03T05:44:59.688Z,14.55
2022-11-03T05:47:35.022Z,16.30
2022-11-03T05:50:25.161Z,15.23
2022-11-03T05:53:17.327Z,19.40
2022-11-03T05:55:44.273Z,16.30
2022-11-03T05:58:25.767Z,15.25
2022-11-03T06:00:53.803Z,14.50
2022-11-03T06:03:24.843Z,14.02
2022-11-03T06:05:53.537Z,14.85
2022-11-03T06:08:25.669Z,15.57
2022-11-03T06:10:56.491Z,13.90
2022-11-03T06:13:43.514Z,18.35
2022-11-03T06:16:41.704Z,18.27
2022-11-03T06:19:27.369Z,14.13
2022-11-03T06:21:58.094Z,14.27
2022-11-03T06:24:30.251Z,14.85
2022-11-03T06:26:58.456Z,14.60
2022-11-03T06:29:25.476Z,14.68
2022-11-03T06:31:56.026Z,16.50
2022-11-03T06:34:31.656Z,13.18
2022-11-03T06:37:00.102Z,12.70
2022-11-03T06:39:26.976Z,15.25
2022-11-03T06:41:54.004Z,12.93
2022-11-03T06:44:30.713Z,16.13
2022-11-03T06:47:01.817Z,15.55
2022-11-03T06:49:32.429Z,12.75
2022-11-03T06:52:06.187Z,12.25
2022-11-03T06:54:32.979Z,12.80
2022-11-03T06:56:59.955Z,12.80
2022-11-03T06:59:26.674Z,14.82
2022-11-03T07:01:55.709Z,11.70
2022-11-03T07:04:28.567Z,14.90
2022-11-03T07:07:00.920Z,16.35
2022-11-03T07:09:27.993Z,11.70
2022-11-03T07:12:00.707Z,11.93
2022-11-03T07:14:29.767Z,15.75
2022-11-03T07:16:59.278Z,12.07
2022-11-03T07:19:39.153Z,15.23
2022-11-03T07:22:15.972Z,12.43
2022-11-03T07:24:45.863Z,14.00
2022-11-03T07:27:29.884Z,11.98
2022-11-03T07:30:18.292Z,13.48
2022-11-03T07:32:45.111Z,15.60
2022-11-03T07:35:17.802Z,16.00
2022-11-03T07:37:52.682Z,13.23
2022-11-03T07:40:23.617Z,13.18
2022-11-03T07:42:51.398Z,14.77
2022-11-03T07:45:35.826Z,12.30
2022-11-03T07:48:19.828Z,11.30
2022-11-03T07:50:51.754Z,16.75
2022-11-03T07:53:41.705Z,10.55
2022-11-03T07:56:22.364Z,12.23
2022-11-03T07:59:02.007Z,15.55
2022-11-03T08:01:45.182Z,10.20
2022-11-03T08:04:34.346Z,14.10
2022-11-03T08:07:01.324Z,10.68
2022-11-03T08:09:28.351Z,13.23
2022-11-03T08:11:55.141Z,12.13
2022-11-03T08:14:21.913Z,14.82
2022-11-03T08:16:48.745Z,10.93
2022-11-03T08:19:15.526Z,13.40
2022-11-03T08:21:42.265Z,11.45
2022-11-03T08:24:09.033Z,13.80
2022-11-03T08:26:35.901Z,12.10
2022-11-03T08:29:03.140Z,13.70
2022-11-03T08:31:30.036Z,11.68
2022-11-03T08:33:56.913Z,13.45
2022-11-03T08:36:23.702Z,12.13
2022-11-03T08:38:50.860Z,11.40
2022-11-03T08:41:17.682Z,14.88
2022-11-03T08:43:44.727Z,15.93
2022-11-03T08:46:17.614Z,12.73
2022-11-03T08:48:45.908Z,12.35
2022-11-03T08:51:14.197Z,15.10
2022-11-03T08:53:42.749Z,13.02
2022-11-03T08:56:12.736Z,13.35
2022-11-03T08:58:43.623Z,12.45
2022-11-03T09:01:10.885Z,12.63
2022-11-03T09:03:37.858Z,14.75
2022-11-03T09:06:05.015Z,16.23
2022-11-03T09:11:18.651Z,15.50
2022-11-03T09:13:45.478Z,11.98
2022-11-03T09:16:12.356Z,13.93
2022-11-03T09:18:39.271Z,12.73
2022-11-03T09:21:06.459Z,12.25
2022-11-03T09:23:33.304Z,11.65
2022-11-03T09:26:00.278Z,15.30
2022-11-03T09:28:27.193Z,12.93
2022-11-03T09:30:54.839Z,12.57
2022-11-03T09:33:21.575Z,12.63
2022-11-03T09:35:48.379Z,13.57
2022-11-03T09:38:15.251Z,12.30
2022-11-03T09:40:42.101Z,11.38
2022-11-03T09:43:09.493Z,11.88
2022-11-03T09:45:37.979Z,11.55
2022-11-03T09:48:06.069Z,16.23
2022-11-03T09:50:33.150Z,12.95
2022-11-03T09:52:59.938Z,14.77
2022-11-03T09:55:27.738Z,13.45
2022-11-03T09:58:00.739Z,12.13
2022-11-03T10:00:27.538Z,13.15
2022-11-03T10:02:54.973Z,14.00
2022-11-03T10:05:27.684Z,12.55
2022-11-03T10:07:59.683Z,13.98
2022-11-03T10:10:27.086Z,12.85
2022-11-03T10:12:54.166Z,13.57
2022-11-03T10:15:23.489Z,14.68
2022-11-03T10:17:51.274Z,14.10
2022-11-03T10:20:21.071Z,15.23
2022-11-03T10:22:52.586Z,14.82
2022-11-03T10:25:29.648Z,12.57
2022-11-03T10:28:16.826Z,16.65
2022-11-03T10:31:16.036Z,12.32
2022-11-03T10:33:56.208Z,13.57
2022-11-03T10:36:26.584Z,13.57
2022-11-03T10:38:54.125Z,11.27
2022-11-03T10:41:26.881Z,11.10
2022-11-03T10:44:12.739Z,12.48
2022-11-03T10:46:56.090Z,10.95
2022-11-03T10:49:24.818Z,11.77
2022-11-03T10:51:53.876Z,11.13
2022-11-03T10:54:24.038Z,12.02
2022-11-03T10:56:52.586Z,10.48
2022-11-03T10:59:31.916Z,12.15
2022-11-03T11:02:00.555Z,12.10
2022-11-03T11:04:27.684Z,12.65
2022-11-03T11:06:54.824Z,13.20
2022-11-03T11:09:25.757Z,13.07
2022-11-03T11:12:06.882Z,10.27
2022-11-03T11:14:39.553Z,12.35
2022-11-03T11:17:46.049Z,12.13
2022-11-03T11:20:21.461Z,13.40
2022-11-03T11:22:49.863Z,12.90
2022-11-03T11:25:18.808Z,11.38
2022-11-03T11:27:45.502Z,10.90
2022-11-03T11:30:18.524Z,10.48
2022-11-03T11:32:45.273Z,10.05
2022-11-03T11:35:38.159Z,10.60
2022-11-03T11:38:42.455Z,12.25
2022-11-03T11:41:09.903Z,13.27
2022-11-03T11:43:36.854Z,9.73
2022-11-03T11:46:22.355Z,12.00
2022-11-03T11:49:04.515Z,12.05
2022-11-03T11:51:35.589Z,12.20
2022-11-03T11:54:17.496Z,11.48
2022-11-03T11:56:47.298Z,14.05
2022-11-03T11:59:26.013Z,10.02
2022-11-03T12:01:57.277Z,10.25
2022-11-03T12:04:31.680Z,12.50
2022-11-03T12:06:58.896Z,12.35
2022-11-03T12:09:27.751Z,12.85
2022-11-03T12:11:59.248Z,11.05
2022-11-03T12:14:38.577Z,10.48
2022-11-03T12:17:17.671Z,10.23
2022-11-03T12:19:51.588Z,11.27
2022-11-03T12:22:24.586Z,15.27
2022-11-03T12:24:59.128Z,11.32
2022-11-03T12:27:25.873Z,10.73
2022-11-03T12:30:00.185Z,11.68
2022-11-03T12:32:33.869Z,13.10
2022-11-03T12:35:05.758Z,9.80
2022-11-03T12:37:32.940Z,11.02
2022-11-03T12:40:00.057Z,9.68
2022-11-03T12:42:26.879Z,10.52
2022-11-03T12:44:53.713Z,14.65
2022-11-03T12:47:21.106Z,9.60
2022-11-03T12:49:48.536Z,9.77
2022-11-03T12:52:15.745Z,9.90
2022-11-03T12:54:42.800Z,8.90
2022-11-03T12:57:09.595Z,9.90
2022-11-03T12:59:36.587Z,9.40
2022-11-03T13:02:03.798Z,9.77
2022-11-03T13:04:30.714Z,9.55
2022-11-03T13:06:57.497Z,10.88
2022-11-03T13:09:24.498Z,9.88
2022-11-03T13:12:10.017Z,9.98
2022-11-03T13:14:36.823Z,11.02
2022-11-03T13:17:03.949Z,9.15
2022-11-03T13:19:30.924Z,10.90
2022-11-03T13:21:57.735Z,9.57
2022-11-03T13:24:24.574Z,9.77
2022-11-03T13:26:51.553Z,9.35
2022-11-03T13:29:18.489Z,10.52
2022-11-03T13:31:45.332Z,11.20
2022-11-03T13:34:12.341Z,9.50
2022-11-03T13:36:39.746Z,11.82
2022-11-03T13:39:06.515Z,11.20
2022-11-03T13:41:33.299Z,10.40
2022-11-03T13:44:00.106Z,10.13
2022-11-03T13:46:26.954Z,9.98
2022-11-03T13:49:51.023Z,10.70
2022-11-03T13:51:40.874Z,11.38
2022-11-03T13:59:41.836Z,10.48
2022-11-03T14:04:57.044Z,12.82
2022-11-03T14:07:23.938Z,12.52
2022-11-03T14:09:50.793Z,12.52
2022-11-03T14:12:36.831Z,11.02
2022-11-03T14:15:12.326Z,10.23
2022-11-03T14:17:40.435Z,11.40
2022-11-03T14:20:09.808Z,11.75
2022-11-03T14:22:36.923Z,11.00
2022-11-03T14:25:04.080Z,10.95
2022-11-03T14:27:31.048Z,11.50
2022-11-03T14:29:57.871Z,11.25
2022-11-03T14:32:24.674Z,11.98
2022-11-03T14:34:51.673Z,11.82
2022-11-03T14:37:18.665Z,12.65
2022-11-03T14:39:45.528Z,11.85
2022-11-03T14:42:17.141Z,12.80
2022-11-03T14:44:46.355Z,13.43
2022-11-03T14:47:18.476Z,12.85
2022-11-03T14:49:46.478Z,13.02
2022-11-03T14:52:14.570Z,12.88
2022-11-03T14:54:41.974Z,12.38
2022-11-03T14:57:09.834Z,13.60
2022-11-03T14:59:36.728Z,13.60
2022-11-03T15:02:05.039Z,12.43
2022-11-03T15:04:32.057Z,12.40
2022-11-03T15:06:59.008Z,13.05
2022-11-03T15:09:25.918Z,11.95
2022-11-03T15:11:53.090Z,14.80
2022-11-03T15:14:20.039Z,12.35
2022-11-03T15:16:46.894Z,11.25
2022-11-03T15:19:14.046Z,12.40
2022-11-03T15:21:41.453Z,12.40
2022-11-03T15:26:55.355Z,12.25
2022-11-03T15:29:24.043Z,12.10
2022-11-03T15:31:51.353Z,12.93
2022-11-03T15:34:18.369Z,13.13
2022-11-03T15:36:45.341Z,13.57
2022-11-03T15:39:13.284Z,15.05
2022-11-03T15:41:40.350Z,16.65
2022-11-03T15:44:07.371Z,13.35
2022-11-03T15:46:35.784Z,14.68
2022-11-03T15:49:03.456Z,14.73
2022-11-03T15:51:30.314Z,15.30
2022-11-03T15:53:59.164Z,15.75
2022-11-03T15:56:27.220Z,15.82
2022-11-03T15:58:54.180Z,15.13
2022-11-03T16:01:21.339Z,15.57
2022-11-03T16:03:48.666Z,14.98
2022-11-03T16:06:15.693Z,15.35
2022-11-03T16:08:42.918Z,14.80
2022-11-03T16:11:09.724Z,16.48
2022-11-03T16:13:36.531Z,15.10
2022-11-03T16:16:03.531Z,14.80
2022-11-03T16:18:30.453Z,16.80
2022-11-03T16:20:57.282Z,15.00
2022-11-03T16:23:24.760Z,15.55
2022-11-03T16:25:51.574Z,15.35
2022-11-03T16:28:18.355Z,15.77
2022-11-03T16:30:48.517Z,17.40
2022-11-03T16:33:19.761Z,17.80
2022-11-03T16:35:46.513Z,17.67
2022-11-03T16:38:15.238Z,18.70
2022-11-03T16:40:42.805Z,18.48
2022-11-03T16:43:09.941Z,19.27
2022-11-03T16:45:38.098Z,17.20
2022-11-03T16:48:06.477Z,17.40
2022-11-03T16:50:33.693Z,19.35
2022-11-03T16:53:00.488Z,19.60
2022-11-03T16:55:27.314Z,19.10
2022-11-03T16:57:54.091Z,18.85
2022-11-03T17:00:21.196Z,19.40
2022-11-03T17:02:48.115Z,19.00
2022-11-03T17:05:17.539Z,18.23
2022-11-03T17:07:50.037Z,19.70
2022-11-03T17:10:20.116Z,19.90
2022-11-03T17:12:47.107Z,19.27
2022-11-03T17:15:13.933Z,19.95
2022-11-03T17:17:41.517Z,19.90
2022-11-03T17:20:09.248Z,19.73
2022-11-03T17:22:36.528Z,20.23
2022-11-03T17:25:04.962Z,20.33
2022-11-03T17:27:38.352Z,19.27
2022-11-03T17:30:08.925Z,20.98
2022-11-03T17:32:43.671Z,19.00
2022-11-03T17:35:25.426Z,17.23
2022-11-03T17:37:53.039Z,17.73
2022-11-03T17:40:25.375Z,18.85
2022-11-03T17:42:52.839Z,18.05
2022-11-03T17:45:24.107Z,19.25
2022-11-03T17:47:51.170Z,19.15
2022-11-03T17:50:20.472Z,19.17
2022-11-03T17:52:49.669Z,19.52
2022-11-03T17:55:26.298Z,20.63
2022-11-03T17:57:54.820Z,20.23
2022-11-03T18:00:22.538Z,19.65
2022-11-03T18:02:51.352Z,19.80
2022-11-03T18:05:32.411Z,21.00
2022-11-03T18:08:01.883Z,18.73
2022-11-03T18:10:32.471Z,20.70
2022-11-03T18:13:17.947Z,25.42
2022-11-03T18:15:51.317Z,26.15
2022-11-03T18:18:26.447Z,27.17
2022-11-03T18:20:54.370Z,24.00
2022-11-03T18:23:24.643Z,24.73
2022-11-03T18:25:52.355Z,29.40
2022-11-03T18:28:20.051Z,29.58
2022-11-03T18:30:50.047Z,30.13
2022-11-03T18:33:29.243Z,29.70
2022-11-03T18:35:57.241Z,30.70
2022-11-03T18:38:25.951Z,31.60
2022-11-03T18:40:52.852Z,32.85
2022-11-03T18:43:23.321Z,33.33
2022-11-03T18:45:51.147Z,33.20
2022-11-03T18:48:21.276Z,32.40
2022-11-03T18:50:51.141Z,34.05
2022-11-03T18:53:21.799Z,38.33
2022-11-03T18:55:48.994Z,37.05
2022-11-03T18:58:24.526Z,37.60
2022-11-03T19:00:55.169Z,36.90
2022-11-03T19:03:23.585Z,39.33
2022-11-03T19:05:52.788Z,36.63
2022-11-03T19:08:31.774Z,38.03
2022-11-03T19:11:03.786Z,40.20
2022-11-03T19:13:36.546Z,36.05
2022-11-03T19:16:27.941Z,34.72
2022-11-03T19:18:54.777Z,37.47
2022-11-03T19:21:23.795Z,37.03
2022-11-03T19:23:57.102Z,36.15
2022-11-03T19:26:35.761Z,37.05
2022-11-03T19:29:17.117Z,37.55
2022-11-03T19:31:46.447Z,38.63
2022-11-03T19:34:17.832Z,37.58
2022-11-03T19:36:46.334Z,39.25
2022-11-03T19:39:31.506Z,39.85
2022-11-03T19:42:20.685Z,40.83
2022-11-03T19:44:49.463Z,40.10
2022-11-03T19:47:17.596Z,40.10
2022-11-03T19:49:46.017Z,40.47
2022-11-03T19:52:15.572Z,40.03
2022-11-03T19:54:45.956Z,38.33
2022-11-03T19:57:14.111Z,38.95
2022-11-03T19:59:42.027Z,39.10
2022-11-03T20:02:09.618Z,40.83
2022-11-03T20:04:36.959Z,41.08
2022-11-03T20:07:04.388Z,39.75
2022-11-03T20:09:31.634Z,39.90
2022-11-03T20:12:03.424Z,41.58
2022-11-03T20:14:30.251Z,39.90
2022-11-03T20:17:10.460Z,38.33
2022-11-03T20:19:37.306Z,39.58
2022-11-03T20:22:05.578Z,41.15
2022-11-03T20:24:32.712Z,41.15
2022-11-03T20:27:00.989Z,38.83
2022-11-03T20:29:33.722Z,40.17
2022-11-03T20:32:01.581Z,40.88
2022-11-03T20:34:28.843Z,40.65
2022-11-03T20:36:55.703Z,41.10
2022-11-03T20:39:24.149Z,41.58
2022-11-03T20:41:52.259Z,39.20
2022-11-03T20:44:19.175Z,40.22
2022-11-03T20:46:45.994Z,43.10
2022-11-03T20:49:12.786Z,41.83
2022-11-03T20:51:43.470Z,42.22
2022-11-03T20:54:19.540Z,42.33
2022-11-03T20:56:46.900Z,45.20
2022-11-03T20:59:17.697Z,43.88
2022-11-03T21:01:45.340Z,42.85
2022-11-03T21:04:17.033Z,42.50
2022-11-03T21:06:44.811Z,43.72
2022-11-03T21:09:17.802Z,44.45
2022-11-03T21:11:45.969Z,42.97
2022-11-03T21:14:18.804Z,43.50
2022-11-03T21:17:04.470Z,43.50
2022-11-03T21:19:51.995Z,43.78
2022-11-03T21:22:54.148Z,45.63
2022-11-03T21:25:23.201Z,44.13
2022-11-03T21:27:50.497Z,45.10
2022-11-03T21:30:18.210Z,43.47
2022-11-03T21:32:45.475Z,45.17
2022-11-03T21:35:18.211Z,44.95
2022-11-03T21:37:48.049Z,46.53
2022-11-03T21:40:14.977Z,45.22
2022-11-03T21:43:00.387Z,46.67
2022-11-03T21:45:27.465Z,44.75
2022-11-03T21:48:14.368Z,47.00
2022-11-03T21:50:42.748Z,48.47
2022-11-03T21:53:10.759Z,48.10
2022-11-03T21:55:38.152Z,47.65
2022-11-03T21:58:05.653Z,48.80
2022-11-03T22:00:32.933Z,49.03
2022-11-03T22:03:00.558Z,47.67
2022-11-03T22:05:27.648Z,46.33
2022-11-03T22:07:54.557Z,47.33
2022-11-03T22:10:21.780Z,48.88
2022-11-03T22:12:48.628Z,48.80
2022-11-03T22:15:33.961Z,45.78
2022-11-03T22:18:06.240Z,50.95
2022-11-03T22:20:52.183Z,51.05
2022-11-03T22:23:37.486Z,52.92
2022-11-03T22:26:22.605Z,52.72
2022-11-03T22:29:12.135Z,53.08
2022-11-03T22:31:41.740Z,49.88
2022-11-03T22:34:27.442Z,51.50
2022-11-03T22:36:54.239Z,49.75
2022-11-03T22:39:39.451Z,48.97
2022-11-03T22:42:24.709Z,50.88
2022-11-03T22:45:09.999Z,51.85
2022-11-03T22:47:37.022Z,50.65
2022-11-03T22:50:03.957Z,49.95
2022-11-03T22:52:30.735Z,53.35
2022-11-03T22:54:57.478Z,55.00
2022-11-03T22:57:24.263Z,53.47
2022-11-03T22:59:51.032Z,52.97
2022-11-03T23:02:17.841Z,53.75
2022-11-03T23:04:46.465Z,54.95
2022-11-03T23:07:13.322Z,55.72
2022-11-03T23:09:40.094Z,53.72
2022-11-03T23:12:06.938Z,51.20
2022-11-03T23:14:53.680Z,52.53
2022-11-03T23:17:20.463Z,50.88
2022-11-03T23:20:22.708Z,50.45
2022-11-03T23:22:49.507Z,55.45
2022-11-03T23:25:16.436Z,53.63
2022-11-03T23:27:43.205Z,53.67
2022-11-03T23:30:10.751Z,55.47
2022-11-03T23:32:37.521Z,52.55
2022-11-03T23:35:04.780Z,51.80
2022-11-03T23:37:31.540Z,54.03
2022-11-03T23:39:58.306Z,55.15
2022-11-03T23:42:25.087Z,56.38
2022-11-03T23:45:10.428Z,56.75
2022-11-03T23:48:00.274Z,56.42
2022-11-03T23:50:27.228Z,54.22
2022-11-03T23:52:54.002Z,52.17
2022-11-03T23:55:20.799Z,55.60
2022-11-03T23:58:06.345Z,53.05
